Time;durP1;ratioP1;P1;durP2;ratioP2;P2;SDS_P1;SDS_P2;PMS_P1;PMS_P2;Temp;Humidity;BMP_temperature;BMP_pressure;BME280_temperature;BME280_humidity;BME280_pressure;Samples;Min_cycle;Max_cycle;Signal;HPM_P1;HPM_P2
2022/04/15 00:02:21;;;;;;;2.95;2.10;;;;;;;1.02;85.48;100476.78;1830416;78;21543;-70
2022/04/15 00:04:48;;;;;;;4.83;2.45;;;;;;;1.03;85.92;100479.80;1830139;78;21207;-70
2022/04/15 00:07:15;;;;;;;3.17;2.08;;;;;;;1.03;86.44;100481.09;1830299;78;21056;-71
2022/04/15 00:09:43;;;;;;;3.52;2.20;;;;;;;1.02;86.86;100485.86;1829959;78;20993;-69
2022/04/15 00:12:17;;;;;;;3.05;2.27;;;;;;;0.99;87.21;100479.36;1830345;78;21051;-70
2022/04/15 00:14:40;;;;;;;5.17;2.10;;;;;;;0.98;87.10;100475.02;1829118;78;21543;-70
2022/04/15 00:17:08;;;;;;;4.60;2.00;;;;;;;0.97;87.26;100475.88;1830125;78;21016;-69
2022/04/15 00:19:36;;;;;;;4.72;2.37;;;;;;;0.96;87.33;100480.61;1829947;78;21032;-70
2022/04/15 00:22:04;;;;;;;3.70;2.30;;;;;;;0.95;87.40;100484.08;1830375;78;22246;-70
2022/04/15 00:24:31;;;;;;;5.37;2.12;;;;;;;0.94;87.30;100481.46;1830127;78;21544;-71
2022/04/15 00:26:57;;;;;;;5.28;2.20;;;;;;;0.94;87.09;100481.03;1829929;78;21071;-69
2022/04/15 00:29:28;;;;;;;3.47;2.05;;;;;;;0.91;87.04;100474.53;1829736;78;21083;-70
2022/04/15 00:31:56;;;;;;;3.33;2.10;;;;;;;0.92;87.18;100475.39;1829805;78;21099;-70
2022/04/15 00:34:23;;;;;;;4.22;1.92;;;;;;;0.89;87.16;100473.64;1829792;78;20981;-69
2022/04/15 00:36:50;;;;;;;5.05;2.05;;;;;;;0.88;87.10;100471.92;1829768;78;21008;-70
2022/04/15 00:39:17;;;;;;;4.60;2.10;;;;;;;0.89;86.87;100465.87;1829897;78;21047;-69
2022/04/15 00:41:44;;;;;;;3.80;1.90;;;;;;;0.91;86.80;100463.30;1830042;78;21159;-70
2022/04/15 00:44:11;;;;;;;3.70;2.08;;;;;;;0.89;87.17;100463.70;1829889;78;21024;-69
2022/04/15 00:46:38;;;;;;;5.15;1.90;;;;;;;0.86;87.53;100455.48;1829887;78;21071;-69
2022/04/15 00:49:04;;;;;;;4.80;2.20;;;;;;;0.84;87.50;100459.78;1829863;78;21535;-70
2022/04/15 00:51:35;;;;;;;4.30;2.08;;;;;;;0.82;87.47;100457.61;1829906;78;21028;-70
2022/04/15 00:54:03;;;;;;;4.25;2.30;;;;;;;0.78;87.96;100456.73;1829927;78;21783;-70
2022/04/15 00:56:34;;;;;;;4.42;2.00;;;;;;;0.79;88.35;100453.70;1829676;78;21601;-70
2022/04/15 00:59:02;;;;;;;6.15;2.17;;;;;;;0.77;88.87;100451.09;1830508;78;21012;-70
2022/04/15 01:01:29;;;;;;;3.27;1.90;;;;;;;0.76;89.12;100454.95;1830215;78;21051;-70
2022/04/15 01:03:57;;;;;;;6.65;2.47;;;;;;;0.75;89.75;100455.39;1829929;78;22102;-70
2022/04/15 01:06:24;;;;;;;4.70;2.10;;;;;;;0.74;89.84;100451.51;1830018;78;21220;-70
2022/04/15 01:08:52;;;;;;;7.62;2.40;;;;;;;0.74;89.59;100460.58;1829794;78;21035;-69
2022/04/15 01:11:19;;;;;;;3.98;2.50;;;;;;;0.71;89.86;100451.46;1829754;78;21016;-70
2022/04/15 01:13:46;;;;;;;4.22;2.12;;;;;;;0.70;89.81;100452.33;1830100;78;21086;-69
2022/04/15 01:16:13;;;;;;;2.25;1.90;;;;;;;0.70;89.99;100451.89;1829759;78;21015;-71
2022/04/15 01:18:39;;;;;;;4.85;1.90;;;;;;;0.70;90.25;100451.03;1799787;78;21296;-70
2022/04/15 01:21:07;;;;;;;4.78;2.15;;;;;;;0.67;90.26;100453.58;1829718;78;21000;-71
2022/04/15 01:23:34;;;;;;;3.87;2.10;;;;;;;0.66;90.28;100454.45;1829807;77;21016;-68
2022/04/15 01:26:01;;;;;;;4.45;1.82;;;;;;;0.63;90.30;100452.27;1830020;78;21499;-69
2022/04/15 01:28:28;;;;;;;4.75;1.82;;;;;;;0.62;90.21;100449.25;1829899;78;21317;-71
2022/04/15 01:30:55;;;;;;;3.20;1.90;;;;;;;0.59;90.13;100444.02;1830042;78;21235;-70
2022/04/15 01:33:21;;;;;;;6.45;2.08;;;;;;;0.57;90.10;100447.02;1829749;78;21060;-70
2022/04/15 01:35:48;;;;;;;5.65;2.52;;;;;;;0.55;89.87;100446.17;1829721;78;21055;-69
2022/04/15 01:38:17;;;;;;;3.75;2.35;;;;;;;0.55;90.28;100452.65;1829956;78;21028;-70
2022/04/15 01:40:44;;;;;;;8.18;2.27;;;;;;;0.54;90.71;100447.00;1829915;78;21047;-70
2022/04/15 01:43:11;;;;;;;6.62;2.60;;;;;;;0.53;91.25;100443.98;1830079;78;21232;-69
2022/04/15 01:45:39;;;;;;;4.78;2.08;;;;;;;0.55;91.47;100439.69;1829786;78;21509;-70
2022/04/15 01:48:07;;;;;;;3.90;2.33;;;;;;;0.55;91.68;100447.47;1830054;78;21531;-70
2022/04/15 01:50:35;;;;;;;5.45;2.60;;;;;;;0.54;92.07;100441.82;1830257;78;21075;-70
2022/04/15 01:53:03;;;;;;;5.17;2.67;;;;;;;0.54;92.02;100444.41;1829846;78;21099;-69
2022/04/15 01:55:30;;;;;;;5.40;2.60;;;;;;;0.53;92.04;100437.51;1829659;78;21223;-70
2022/04/15 01:57:56;;;;;;;4.53;2.35;;;;;;;0.54;92.07;100439.66;1829839;78;21044;-69
2022/04/15 02:00:23;;;;;;;4.55;2.37;;;;;;;0.55;91.97;100437.09;1829978;78;21067;-70
2022/04/15 02:02:51;;;;;;;4.37;2.05;;;;;;;0.54;91.95;100437.94;1829932;78;21598;-70
2022/04/15 02:05:18;;;;;;;4.67;2.37;;;;;;;0.54;91.56;100442.25;1829851;78;21039;-69
2022/04/15 02:07:45;;;;;;;3.37;2.17;;;;;;;0.52;91.34;100437.05;1793190;80;21612;-72
2022/04/15 02:10:12;;;;;;;4.42;2.10;;;;;;;0.51;91.34;100435.33;1753411;81;21048;-70
2022/04/15 02:12:39;;;;;;;3.92;2.00;;;;;;;0.49;91.36;100437.03;1793271;80;21071;-70
2022/04/15 02:15:08;;;;;;;4.47;2.37;;;;;;;0.48;91.51;100434.42;1793279;80;21573;-70
2022/04/15 02:17:36;;;;;;;4.00;1.77;;;;;;;0.47;91.51;100434.85;1793707;80;21037;-70
2022/04/15 02:20:05;;;;;;;5.92;2.17;;;;;;;0.44;91.67;100430.95;1793510;80;21214;-72
2022/04/15 02:22:33;;;;;;;4.30;2.30;;;;;;;0.44;92.12;100428.36;1793486;79;21006;-70
2022/04/15 02:25:00;;;;;;;8.50;2.17;;;;;;;0.44;92.67;100432.25;1793727;79;21037;-70
2022/04/15 02:27:27;;;;;;;5.15;2.12;;;;;;;0.44;92.79;100434.83;1793768;80;21043;-70
2022/04/15 02:29:55;;;;;;;3.52;2.20;;;;;;;0.44;92.87;100434.83;1765037;80;21020;-68
2022/04/15 02:32:23;;;;;;;6.58;2.40;;;;;;;0.44;92.80;100426.17;1793352;79;21250;-70
2022/04/15 02:34:51;;;;;;;5.12;2.50;;;;;;;0.42;93.04;100427.47;1793205;79;21071;-70
2022/04/15 02:37:17;;;;;;;3.45;2.50;;;;;;;0.40;93.14;100427.88;1793308;80;21041;-70
2022/04/15 02:39:44;;;;;;;5.35;2.40;;;;;;;0.41;93.33;100429.20;1793335;80;21031;-70
2022/04/15 02:42:10;;;;;;;6.12;2.58;;;;;;;0.40;93.48;100422.70;1793281;80;21054;-69
2022/04/15 02:44:38;;;;;;;4.72;2.65;;;;;;;0.38;93.57;100420.08;1764956;80;21366;-71
2022/04/15 02:47:07;;;;;;;6.00;2.40;;;;;;;0.38;93.31;100420.52;1793175;80;21048;-69
2022/04/15 02:49:35;;;;;;;2.98;2.05;;;;;;;0.36;93.11;100411.42;1765078;80;21588;-70
2022/04/15 02:52:04;;;;;;;3.50;2.20;;;;;;;0.35;93.69;100419.20;1793216;80;21037;-70
2022/04/15 02:54:30;;;;;;;6.28;2.27;;;;;;;0.33;93.58;100413.14;1793236;79;21115;-70
2022/04/15 02:56:57;;;;;;;5.33;2.47;;;;;;;0.34;93.84;100413.56;1793123;80;21504;-70
2022/04/15 02:59:23;;;;;;;4.40;2.08;;;;;;;0.32;94.03;100416.16;1792942;80;21149;-69
2022/04/15 03:01:51;;;;;;;4.10;2.60;;;;;;;0.32;94.32;100415.27;1793044;80;21004;-70
2022/04/15 03:04:18;;;;;;;5.95;2.58;;;;;;;0.31;94.26;100418.73;1793415;80;21077;-71
2022/04/15 03:06:46;;;;;;;4.83;3.02;;;;;;;0.30;94.30;100416.58;1793330;80;21060;-70
2022/04/15 03:09:13;;;;;;;9.73;3.75;;;;;;;0.31;94.46;100420.03;1793467;80;21301;-71
2022/04/15 03:11:41;;;;;;;7.33;3.58;;;;;;;0.31;94.29;100418.30;1793152;80;21040;-71
2022/04/15 03:14:07;;;;;;;8.13;3.50;;;;;;;0.32;94.31;100420.45;1793428;80;21099;-71
2022/04/15 03:16:36;;;;;;;6.72;3.10;;;;;;;0.33;94.20;100415.73;1793293;80;21063;-68
2022/04/15 03:19:04;;;;;;;6.60;3.45;;;;;;;0.34;94.49;100410.54;1793503;79;21103;-70
2022/04/15 03:21:31;;;;;;;7.72;4.00;;;;;;;0.37;94.55;100416.20;1793288;80;21795;-70
2022/04/15 03:23:57;;;;;;;5.95;3.30;;;;;;;0.38;94.51;100405.84;1793309;80;21044;-71
2022/04/15 03:26:26;;;;;;;6.47;3.10;;;;;;;0.43;94.85;100413.65;1793235;79;21075;-70
2022/04/15 03:28:52;;;;;;;8.45;3.47;;;;;;;0.48;95.00;100413.25;1762102;81;21052;-71
2022/04/15 03:31:20;;;;;;;6.15;3.00;;;;;;;0.54;94.79;100406.84;1749797;82;21090;-70
2022/04/15 03:33:46;;;;;;;6.12;3.02;;;;;;;0.63;94.71;100403.45;1743238;82;21315;-70
2022/04/15 03:36:15;;;;;;;5.53;2.90;;;;;;;0.72;94.77;100402.66;1743693;82;21086;-70
2022/04/15 03:38:41;;;;;;;4.00;2.72;;;;;;;0.82;94.92;100407.05;1743999;82;21066;-70
2022/04/15 03:41:08;;;;;;;7.55;2.98;;;;;;;0.92;94.41;100402.78;1744028;82;21035;-70
2022/04/15 03:43:36;;;;;;;5.17;2.75;;;;;;;1.04;94.46;100406.34;1743845;82;21119;-70
2022/04/15 03:46:03;;;;;;;5.45;2.87;;;;;;;1.21;94.31;100410.31;1743598;82;21551;-71
2022/04/15 03:48:31;;;;;;;5.53;2.65;;;;;;;1.39;94.13;100405.66;1743562;82;21079;-70
2022/04/15 03:50:59;;;;;;;8.90;3.20;;;;;;;1.75;92.94;100405.38;1743744;82;21566;-71
2022/04/15 03:53:25;;;;;;;9.90;4.28;;;;;;;1.75;92.94;100405.38;1744151;82;21584;-70
2022/04/15 03:55:52;;;;;;;8.85;3.80;;;;;;;2.17;91.34;100406.78;1743928;82;21110;-70
2022/04/15 03:58:20;;;;;;;9.35;4.60;;;;;;;2.17;91.34;100406.78;1744046;82;21170;-69
2022/04/15 04:00:48;;;;;;;10.25;4.42;;;;;;;2.42;90.27;100409.84;1743855;82;21106;-70
2022/04/15 04:03:15;;;;;;;10.50;4.87;;;;;;;2.68;89.21;100408.53;1744447;82;20992;-71
2022/04/15 04:05:42;;;;;;;10.90;5.05;;;;;;;2.95;87.74;100405.48;1743790;82;21087;-72
2022/04/15 04:08:09;;;;;;;13.35;5.50;;;;;;;3.24;86.19;100401.50;1743783;82;21543;-70
2022/04/15 04:10:36;;;;;;;16.70;5.97;;;;;;;3.55;84.87;100407.48;1743832;82;21934;-70
2022/04/15 04:13:05;;;;;;;12.70;5.90;;;;;;;3.90;83.45;100405.14;1743866;82;21149;-72
2022/04/15 04:15:33;;;;;;;14.58;6.10;;;;;;;4.26;81.74;100399.73;1743789;82;21138;-71
2022/04/15 04:17:59;;;;;;;26.55;7.17;;;;;;;4.61;79.99;100398.16;1743605;82;21258;-70
2022/04/15 04:20:27;;;;;;;13.00;6.22;;;;;;;4.93;78.01;100396.56;1743470;82;21126;-69
2022/04/15 04:22:54;;;;;;;13.60;6.08;;;;;;;5.32;76.33;100397.48;1743536;81;21092;-70
2022/04/15 04:25:21;;;;;;;17.62;6.90;;;;;;;5.72;74.70;100406.13;1743666;82;21569;-71
2022/04/15 04:27:49;;;;;;;13.15;6.80;;;;;;;6.13;72.62;100395.59;1743345;82;21059;-71
2022/04/15 04:30:16;;;;;;;14.15;7.00;;;;;;;6.57;70.84;100389.66;1743198;82;21127;-71
2022/04/15 04:32:50;;;;;;;12.65;6.17;;;;;;;7.00;69.11;100390.69;1793794;80;21076;-70
2022/04/15 04:35:21;;;;;;;13.60;6.62;;;;;;;7.43;67.26;100384.19;1793526;78;21152;-71
2022/04/15 04:37:49;;;;;;;15.98;7.45;;;;;;;7.88;65.48;100384.55;1793715;79;21483;-70
2022/04/15 04:40:16;;;;;;;18.07;8.33;;;;;;;8.32;63.74;100380.05;1794004;80;22030;-71
2022/04/15 04:42:45;;;;;;;32.25;8.58;;;;;;;8.78;61.97;100389.45;1793657;80;21003;-70
2022/04/15 04:45:12;;;;;;;16.25;8.93;;;;;;;9.19;60.40;100382.25;1794286;80;21070;-70
2022/04/15 04:47:42;;;;;;;13.95;9.00;;;;;;;9.60;58.98;100381.55;1793968;79;21552;-71
2022/04/15 04:50:10;;;;;;;14.30;8.70;;;;;;;10.04;57.85;100371.00;1794213;80;21029;-71
2022/04/15 04:52:38;;;;;;;15.50;8.13;;;;;;;10.54;56.24;100365.07;1793915;79;21033;-70
2022/04/15 04:55:07;;;;;;;18.12;9.03;;;;;;;10.96;54.92;100369.79;1794077;80;21500;-70
2022/04/15 04:57:33;;;;;;;22.48;9.23;;;;;;;11.37;53.42;100375.38;1793996;80;21019;-69
2022/04/15 05:00:03;;;;;;;20.48;9.40;;;;;;;11.78;52.24;100379.58;1794040;79;21576;-69
2022/04/15 05:02:30;;;;;;;16.95;9.05;;;;;;;12.22;50.54;100369.56;1760384;81;21157;-70
2022/04/15 05:04:57;;;;;;;18.50;10.15;;;;;;;12.68;49.68;100372.48;1760215;81;21626;-70
2022/04/15 05:07:23;;;;;;;20.37;9.90;;;;;;;13.13;48.63;100364.81;1760441;81;21583;-69
2022/04/15 05:09:51;;;;;;;18.70;9.05;;;;;;;13.57;47.54;100366.00;1760374;81;21088;-70
2022/04/15 05:12:19;;;;;;;15.98;8.78;;;;;;;14.03;46.05;100368.27;1760325;81;21129;-71
2022/04/15 05:14:46;;;;;;;16.60;9.08;;;;;;;14.43;44.26;100365.88;1760353;81;21097;-72
2022/04/15 05:17:13;;;;;;;14.58;7.58;;;;;;;14.77;41.86;100361.59;1760376;81;21485;-70
2022/04/15 05:19:41;;;;;;;18.35;10.65;;;;;;;15.28;40.68;100365.13;1760262;81;21091;-71
2022/04/15 05:22:09;;;;;;;16.15;10.18;;;;;;;15.69;38.56;100367.36;1760477;81;21059;-71
2022/04/15 05:24:36;;;;;;;19.48;10.75;;;;;;;16.03;37.21;100362.86;1760605;81;21321;-71
2022/04/15 05:27:05;;;;;;;22.60;10.80;;;;;;;16.35;36.48;100360.17;1753437;81;21011;-71
2022/04/15 05:29:32;;;;;;;20.62;11.80;;;;;;;16.65;35.63;100359.34;1765268;81;21129;-71
2022/04/15 05:32:00;;;;;;;18.30;10.85;;;;;;;16.87;35.34;100358.50;1783111;80;21025;-70
2022/04/15 05:34:26;;;;;;;22.73;12.55;;;;;;;17.20;34.00;100360.92;1783547;80;21029;-71
2022/04/15 05:36:53;;;;;;;22.67;13.08;;;;;;;17.46;32.84;100366.92;1768104;81;21253;-73
2022/04/15 05:39:19;;;;;;;23.40;12.73;;;;;;;17.70;32.63;100364.08;1783863;80;21016;-70
2022/04/15 05:41:47;;;;;;;20.68;12.30;;;;;;;17.78;31.99;100360.47;1767862;81;21008;-70
2022/04/15 05:44:14;;;;;;;26.65;14.50;;;;;;;17.84;31.95;100361.05;1784206;80;21021;-71
2022/04/15 05:46:42;;;;;;;19.35;11.68;;;;;;;18.15;31.29;100356.80;1779226;80;21005;-70
2022/04/15 05:49:14;;;;;;;17.07;10.65;;;;;;;18.29;31.45;100364.35;1779193;80;22049;-71
2022/04/15 05:51:42;;;;;;;18.25;10.70;;;;;;;18.48;30.49;100350.69;1779233;80;21032;-70
2022/04/15 05:54:09;;;;;;;17.90;9.68;;;;;;;18.60;29.83;100345.37;1779322;80;20970;-71
2022/04/15 05:56:38;;;;;;;15.75;10.18;;;;;;;18.66;29.41;100355.64;1779175;80;21072;-71
2022/04/15 05:59:05;;;;;;;21.70;10.13;;;;;;;18.72;29.25;100349.51;1768273;80;21055;-70
2022/04/15 06:01:34;;;;;;;14.80;9.28;;;;;;;18.84;29.17;100346.03;1772287;80;21078;-71
2022/04/15 06:04:01;;;;;;;18.35;10.00;;;;;;;18.81;28.03;100343.58;1763716;81;21021;-71
2022/04/15 06:06:29;;;;;;;15.98;10.38;;;;;;;18.90;28.67;100339.44;1735450;81;21607;-70
2022/04/15 06:08:55;;;;;;;16.30;10.48;;;;;;;18.99;27.57;100338.32;1786750;80;21620;-72
2022/04/15 06:11:22;;;;;;;21.95;11.97;;;;;;;19.07;27.81;100333.32;1772858;80;21053;-71
2022/04/15 06:13:50;;;;;;;20.60;11.97;;;;;;;19.15;27.85;100323.92;1773095;80;21614;-71
2022/04/15 06:16:27;;;;;;;18.48;11.35;;;;;;;19.20;28.17;100322.63;1772891;80;21559;-71
2022/04/15 06:18:49;;;;;;;13.75;8.03;;;;;;;19.56;28.54;100320.15;1772781;80;21587;-70
2022/04/15 06:21:18;;;;;;;11.18;6.47;;;;;;;20.10;25.77;100313.11;1772931;80;21641;-71
2022/04/15 06:23:45;;;;;;;11.05;5.28;;;;;;;20.23;24.47;100314.40;1772950;80;21114;-70
2022/04/15 06:26:11;;;;;;;8.83;5.28;;;;;;;20.18;23.66;100317.41;1772912;81;21217;-69
2022/04/15 06:28:38;;;;;;;7.37;4.60;;;;;;;20.20;24.38;100320.83;1773213;80;20999;-72
2022/04/15 06:31:04;;;;;;;9.35;5.40;;;;;;;20.20;24.01;100318.16;1772935;81;21035;-71
2022/04/15 06:33:32;;;;;;;6.72;3.75;;;;;;;20.25;24.54;100310.64;1773064;80;20993;-70
2022/04/15 06:36:02;;;;;;;9.58;3.90;;;;;;;20.47;23.32;100311.70;1765536;80;21019;-70
2022/04/15 06:38:30;;;;;;;8.63;3.35;;;;;;;20.24;23.38;100308.92;1762193;81;21105;-71
2022/04/15 06:40:57;;;;;;;5.53;3.42;;;;;;;19.94;23.06;100312.53;1714217;82;21110;-71
2022/04/15 06:43:23;;;;;;;6.05;3.33;;;;;;;19.69;23.82;100307.63;1768291;81;21056;-70
2022/04/15 06:45:51;;;;;;;8.08;3.77;;;;;;;19.47;23.89;100305.14;1768114;80;21040;-71
2022/04/15 06:48:19;;;;;;;6.55;3.90;;;;;;;19.46;23.74;100301.23;1768184;81;21071;-71
2022/04/15 06:50:45;;;;;;;8.18;3.35;;;;;;;19.55;24.06;100302.40;1768139;81;21870;-70
2022/04/15 06:53:12;;;;;;;8.35;3.60;;;;;;;19.50;23.54;100298.72;1768180;80;21068;-71
2022/04/15 06:55:38;;;;;;;6.83;3.72;;;;;;;19.58;23.61;100302.17;1768158;80;21087;-70
2022/04/15 06:58:05;;;;;;;8.65;3.62;;;;;;;20.00;24.33;100298.73;1768240;80;21148;-69
2022/04/15 07:00:33;;;;;;;6.45;3.60;;;;;;;20.57;23.14;100307.41;1767967;80;20980;-70
2022/04/15 07:03:00;;;;;;;6.90;3.40;;;;;;;20.79;22.26;100297.23;1767919;81;21161;-70
2022/04/15 07:05:26;;;;;;;9.75;4.67;;;;;;;20.86;22.37;100297.61;1767768;80;21090;-70
2022/04/15 07:07:53;;;;;;;6.55;3.80;;;;;;;20.98;22.23;100298.02;1767805;81;20996;-70
2022/04/15 07:10:21;;;;;;;6.10;4.00;;;;;;;21.01;21.84;100297.77;1767745;80;21021;-71
2022/04/15 07:12:49;;;;;;;7.95;3.58;;;;;;;21.24;22.01;100294.63;1768045;81;21055;-71
2022/04/15 07:15:16;;;;;;;10.03;3.77;;;;;;;21.64;22.06;100287.93;1767698;80;21161;-71
2022/04/15 07:17:42;;;;;;;6.08;3.60;;;;;;;21.80;21.44;100289.72;1768032;81;21068;-70
2022/04/15 07:20:11;;;;;;;6.55;3.83;;;;;;;21.83;21.79;100286.78;1767834;80;21496;-70
2022/04/15 07:22:39;;;;;;;12.15;3.60;;;;;;;21.98;21.38;100289.56;1767639;80;21047;-71
2022/04/15 07:25:06;;;;;;;5.47;3.00;;;;;;;21.94;21.92;100289.44;1768051;80;21012;-70
2022/04/15 07:27:33;;;;;;;4.95;3.25;;;;;;;21.90;21.08;100296.05;1775102;80;21314;-71
2022/04/15 07:30:01;;;;;;;7.20;3.40;;;;;;;21.84;21.42;100293.86;1783343;80;21012;-73
2022/04/15 07:32:29;;;;;;;9.10;4.12;;;;;;;21.91;21.91;100297.75;1783416;80;21048;-71
2022/04/15 07:34:57;;;;;;;7.33;3.25;;;;;;;21.90;21.25;100289.81;1783836;79;21036;-71
2022/04/15 07:37:24;;;;;;;7.50;3.40;;;;;;;21.86;21.55;100293.25;1786145;80;21059;-70
2022/04/15 07:39:51;;;;;;;10.28;3.15;;;;;;;21.98;21.19;100282.85;1786169;80;21533;-70
2022/04/15 07:42:17;;;;;;;6.60;3.22;;;;;;;21.88;21.06;100291.77;1786335;80;22127;-71
2022/04/15 07:44:45;;;;;;;6.10;3.30;;;;;;;21.55;21.38;100290.36;1786315;80;21112;-69
2022/04/15 07:47:11;;;;;;;9.08;3.15;;;;;;;21.47;21.17;100288.80;1786078;80;21036;-70
2022/04/15 07:49:38;;;;;;;4.65;2.80;;;;;;;21.40;21.55;100276.88;1786416;80;21040;-70
2022/04/15 07:52:07;;;;;;;6.33;2.80;;;;;;;21.76;21.59;100281.56;1786296;80;21203;-71
2022/04/15 07:54:34;;;;;;;6.97;2.67;;;;;;;21.87;21.11;100265.45;1786296;80;20997;-70
2022/04/15 07:57:01;;;;;;;7.53;3.20;;;;;;;21.70;20.77;100278.06;1786114;80;21052;-72
2022/04/15 07:59:30;;;;;;;4.28;2.40;;;;;;;21.67;21.18;100275.61;1786308;80;21611;-73
2022/04/15 08:01:58;;;;;;;6.33;2.70;;;;;;;21.68;20.95;100269.29;1786142;80;21587;-72
2022/04/15 08:04:25;;;;;;;7.92;3.10;;;;;;;21.56;20.92;100263.95;1786358;80;21092;-72
2022/04/15 08:06:53;;;;;;;5.40;2.80;;;;;;;21.62;21.71;100267.09;1785820;80;21012;-71
2022/04/15 08:09:21;;;;;;;5.45;2.90;;;;;;;21.96;21.49;100257.99;1786208;80;21453;-71
2022/04/15 08:11:50;;;;;;;6.22;2.50;;;;;;;21.90;21.08;100261.20;1762000;80;21107;-71
2022/04/15 08:14:17;;;;;;;6.22;2.85;;;;;;;21.83;21.72;100257.30;1786225;80;21061;-70
2022/04/15 08:16:45;;;;;;;8.95;3.22;;;;;;;21.96;21.48;100248.61;1786028;80;21020;-71
2022/04/15 08:19:12;;;;;;;6.67;3.75;;;;;;;21.77;21.71;100253.80;1786212;80;21012;-70
2022/04/15 08:21:40;;;;;;;9.15;3.65;;;;;;;21.60;21.93;100251.13;1785949;80;21593;-71
2022/04/15 08:24:07;;;;;;;6.42;2.83;;;;;;;21.90;21.67;100247.80;1786529;80;21040;-70
2022/04/15 08:26:35;;;;;;;6.55;3.42;;;;;;;22.40;21.24;100246.73;1786340;80;21028;-71
2022/04/15 08:29:03;;;;;;;6.35;2.80;;;;;;;22.99;20.78;100242.62;1784123;80;21036;-71
2022/04/15 08:31:30;;;;;;;5.03;2.80;;;;;;;23.56;20.03;100247.01;1783461;80;21025;-70
2022/04/15 08:33:57;;;;;;;7.05;3.05;;;;;;;24.00;19.44;100244.84;1784034;80;21099;-71
2022/04/15 08:36:24;;;;;;;9.25;3.08;;;;;;;23.92;19.57;100236.61;1789774;80;21076;-71
2022/04/15 08:38:52;;;;;;;10.53;2.98;;;;;;;24.07;19.44;100237.06;1760555;81;21599;-70
2022/04/15 08:41:19;;;;;;;7.58;3.30;;;;;;;24.12;19.18;100225.88;1793259;80;21530;-72
2022/04/15 08:43:47;;;;;;;6.67;3.00;;;;;;;23.63;19.50;100230.68;1793247;79;21630;-72
2022/04/15 08:46:14;;;;;;;5.78;3.20;;;;;;;23.14;19.64;100222.11;1793589;80;21677;-71
2022/04/15 08:48:41;;;;;;;7.60;2.58;;;;;;;22.79;19.96;100228.70;1793285;80;21072;-70
2022/04/15 08:51:09;;;;;;;4.70;2.62;;;;;;;22.71;20.50;100224.00;1793150;79;21020;-71
2022/04/15 08:53:36;;;;;;;5.28;3.15;;;;;;;22.68;20.01;100228.77;1793418;80;21231;-71
2022/04/15 08:56:05;;;;;;;6.62;3.08;;;;;;;22.63;20.48;100221.12;1793303;80;21489;-71
2022/04/15 08:58:33;;;;;;;6.92;3.10;;;;;;;22.90;20.93;100211.66;1793504;79;21509;-71
2022/04/15 09:01:00;;;;;;;4.92;2.95;;;;;;;23.31;19.79;100209.88;1793332;80;21087;-71
2022/04/15 09:03:26;;;;;;;6.12;3.00;;;;;;;23.44;20.66;100211.33;1793820;80;21071;-70
2022/04/15 09:05:56;;;;;;;4.75;2.40;;;;;;;23.60;19.49;100204.09;1793299;80;21009;-72
2022/04/15 09:08:25;;;;;;;6.30;2.52;;;;;;;23.48;19.76;100192.23;1793646;80;21112;-71
2022/04/15 09:10:59;;;;;;;5.03;2.85;;;;;;;23.69;19.59;100188.09;1793731;79;21087;-73
2022/04/15 09:13:34;;;;;;;7.12;2.67;;;;;;;23.55;19.22;100187.50;1793619;80;21032;-71
2022/04/15 09:15:58;;;;;;;5.42;2.50;;;;;;;23.68;19.34;100185.06;1792318;80;21067;-72
2022/04/15 09:18:38;;;;;;;7.83;2.75;;;;;;;23.97;19.33;100182.39;1740216;80;21552;-72
2022/04/15 09:21:20;;;;;;;10.43;2.33;;;;;;;23.71;18.37;100184.27;1793213;80;21099;-72
2022/04/15 09:23:48;;;;;;;3.77;2.37;;;;;;;23.40;19.12;100175.47;1793546;79;21056;-72
2022/04/15 09:26:16;;;;;;;5.62;2.58;;;;;;;23.34;19.46;100166.10;1793366;80;21803;-72
2022/04/15 09:28:42;;;;;;;4.37;2.45;;;;;;;23.04;19.52;100173.73;1758567;80;21100;-70
2022/04/15 09:31:13;;;;;;;4.92;2.45;;;;;;;23.13;19.91;100166.20;1757480;80;21269;-70
2022/04/15 09:33:57;;;;;;;6.92;2.52;;;;;;;23.34;19.54;100178.70;1731837;82;21656;-70
2022/04/15 09:36:37;;;;;;;5.60;2.27;;;;;;;23.14;20.08;100166.54;1731321;82;21052;-71
2022/04/15 09:39:14;;;;;;;5.92;2.58;;;;;;;23.24;19.29;100160.72;1761216;81;21564;-71
2022/04/15 09:41:56;;;;;;;8.58;3.15;;;;;;;23.39;19.20;100145.03;1761672;81;21083;-70
2022/04/15 09:44:31;;;;;;;5.03;2.60;;;;;;;23.71;19.34;100144.44;1761734;81;21873;-70
2022/04/15 09:46:54;;;;;;;10.08;2.87;;;;;;;23.57;19.49;100148.39;1761680;81;21016;-70
2022/04/15 09:49:22;;;;;;;5.80;2.70;;;;;;;23.24;20.00;100135.19;1761982;81;21036;-70
2022/04/15 09:51:52;;;;;;;6.22;2.62;;;;;;;23.07;19.95;100135.84;1708998;81;21056;-71
2022/04/15 09:54:26;;;;;;;6.47;2.80;;;;;;;23.29;19.69;100133.94;1762172;81;21035;-71
2022/04/15 09:56:59;;;;;;;4.75;2.80;;;;;;;23.15;19.87;100126.62;1761847;81;21908;-72
2022/04/15 09:59:28;;;;;;;5.60;3.00;;;;;;;22.86;19.98;100121.12;1762039;81;21044;-70
2022/04/15 10:01:58;;;;;;;5.15;3.00;;;;;;;23.09;20.12;100112.39;1761908;81;21079;-71
2022/04/15 10:04:25;;;;;;;5.20;2.17;;;;;;;23.50;19.68;100109.62;1762142;81;21018;-71
2022/04/15 10:06:52;;;;;;;5.17;2.80;;;;;;;23.15;19.91;100112.34;1761630;81;21564;-71
2022/04/15 10:09:20;;;;;;;6.58;2.60;;;;;;;22.86;19.96;100106.85;1762073;81;21111;-71
2022/04/15 10:11:49;;;;;;;3.22;2.08;;;;;;;23.16;20.33;100100.09;1761552;81;21027;-71
2022/04/15 10:14:18;;;;;;;5.33;2.55;;;;;;;23.00;20.30;100097.09;1761991;81;21055;-71
2022/04/15 10:16:45;;;;;;;6.22;2.40;;;;;;;22.79;20.64;100093.96;1761519;81;21044;-71
2022/04/15 10:19:13;;;;;;;5.83;2.25;;;;;;;22.48;20.46;100093.66;1761568;81;21022;-71
2022/04/15 10:21:42;;;;;;;6.80;2.50;;;;;;;22.43;20.85;100085.13;1761206;81;21606;-71
2022/04/15 10:24:10;;;;;;;5.45;2.47;;;;;;;22.26;20.54;100076.72;1761933;81;21651;-71
2022/04/15 10:26:43;;;;;;;8.33;2.40;;;;;;;22.65;20.15;100068.84;1763594;79;21072;-70
2022/04/15 10:29:10;;;;;;;7.35;2.52;;;;;;;23.15;20.09;100074.23;1796015;79;21051;-71
2022/04/15 10:31:46;;;;;;;3.90;2.47;;;;;;;22.98;20.64;100065.47;1796120;79;21020;-72
2022/04/15 10:34:17;;;;;;;4.08;2.50;;;;;;;22.86;20.62;100070.61;1796326;79;21902;-71
2022/04/15 10:36:47;;;;;;;5.47;2.65;;;;;;;23.03;20.05;100067.30;1796187;79;20985;-70
2022/04/15 10:40:34;;;;;;;4.08;2.30;;;;;;;23.28;20.06;100067.73;1852516;77;22709;-72
2022/04/15 10:43:21;;;;;;;4.55;2.58;;;;;;;23.08;19.71;100062.36;1820083;78;21513;-71
2022/04/15 10:45:54;;;;;;;9.68;3.05;;;;;;;22.61;20.01;100062.92;1820357;78;21008;-72
2022/04/15 10:48:32;;;;;;;7.45;2.40;;;;;;;21.98;21.29;100071.53;1820412;78;21623;-72
2022/04/15 10:51:25;;;;;;;5.97;2.60;;;;;;;22.17;22.04;100065.42;1820738;78;20953;-71
2022/04/15 10:53:54;;;;;;;6.25;3.10;;;;;;;22.55;20.78;100060.77;1792328;78;21021;-72
2022/04/15 10:56:23;;;;;;;6.92;2.70;;;;;;;22.81;20.84;100057.09;1820225;78;21628;-73
2022/04/15 11:01:52;;;;;;;5.60;2.42;;;;;;;23.08;20.06;100043.55;1820103;78;21009;-71
2022/04/15 11:04:23;;;;;;;6.83;2.95;;;;;;;22.60;20.00;100042.91;1820099;78;21194;-71
2022/04/15 11:06:51;;;;;;;5.33;2.83;;;;;;;22.36;20.84;100035.18;1820073;78;21036;-72
2022/04/15 11:09:22;;;;;;;7.22;2.83;;;;;;;22.12;21.63;100039.50;1820292;78;20999;-71
2022/04/15 11:11:53;;;;;;;4.00;2.60;;;;;;;21.69;21.26;100051.22;1820512;78;21184;-71
2022/04/15 11:14:34;;;;;;;5.08;2.60;;;;;;;21.64;21.66;100038.70;1820518;78;21084;-71
2022/04/15 11:17:03;;;;;;;5.35;2.85;;;;;;;21.87;21.42;100043.44;1820282;78;21029;-71
2022/04/15 11:19:30;;;;;;;5.42;2.75;;;;;;;21.79;21.65;100028.87;1820369;78;21044;-71
2022/04/15 11:22:00;;;;;;;6.50;2.72;;;;;;;21.74;21.08;100035.59;1796948;78;21891;-70
2022/04/15 11:24:30;;;;;;;6.50;2.70;;;;;;;21.39;22.09;100030.02;1757604;80;21232;-72
2022/04/15 11:27:00;;;;;;;14.05;3.05;;;;;;;21.37;21.75;100020.78;1754381;81;21058;-70
2022/04/15 11:29:33;;;;;;;7.25;2.90;;;;;;;21.60;21.76;100018.50;1752859;81;21056;-70
2022/04/15 11:32:05;;;;;;;4.28;2.45;;;;;;;21.99;21.80;100011.55;1752734;81;21060;-70
2022/04/15 11:34:32;;;;;;;11.85;3.67;;;;;;;22.13;21.60;100014.36;1752839;81;21115;-71
2022/04/15 11:37:05;;;;;;;5.97;3.50;;;;;;;21.90;21.42;100015.89;1752760;81;21339;-70